Terminal Aerodrome Forecast
Issued by NWS

Home | Current Version | Previous Version | Text Only | Print | Product List | Glossary On
Versions: 1 2 3 4 5 6 7 8 9 10 11 12 13 14
000
FTUS44 KOUN 261731
TAFWWR
TAF
KWWR 261731Z 2618/2718 36010KT P6SM BKN008 OVC020
     FM270000 01010KT P6SM BKN012 PROB30 2706/2712 5SM SHRA BKN009=

USA.gov is the U.S. government's official web portal to all federal, state and local government web resources and services.